createdAt,value
2022-08-22T00:02:00.063Z,16.58
2022-08-22T00:02:48.856Z,18.11
2022-08-22T00:02:54.355Z,17.76
2022-08-22T00:02:58.169Z,18.71
2022-08-22T00:03:00.574Z,17.85
2022-08-22T00:03:01.921Z,18.56
2022-08-22T00:03:10.898Z,17.12
2022-08-22T00:04:37.016Z,16.61
2022-08-22T00:07:32.341Z,16.62
2022-08-22T00:10:04.150Z,16.63
2022-08-22T00:12:47.871Z,16.62
2022-08-22T00:15:42.029Z,16.64
2022-08-22T00:18:12.041Z,16.64
2022-08-22T00:20:55.754Z,16.64
2022-08-22T00:23:39.410Z,16.62
2022-08-22T00:26:31.051Z,16.61
2022-08-22T00:29:01.073Z,16.62
2022-08-22T00:31:44.792Z,16.62
2022-08-22T00:34:17.412Z,16.63
2022-08-22T00:36:52.124Z,16.63
2022-08-22T00:39:35.829Z,16.61
2022-08-22T00:42:09.977Z,16.60
2022-08-22T00:44:53.695Z,16.58
2022-08-22T00:47:27.581Z,16.55
2022-08-22T00:49:55.224Z,16.53
2022-08-22T00:52:33.450Z,16.52
2022-08-22T00:55:17.182Z,16.52
2022-08-22T00:58:00.877Z,16.51
2022-08-22T01:00:30.503Z,16.50
2022-08-22T01:03:09.623Z,16.46
2022-08-22T01:05:54.256Z,16.45
2022-08-22T01:08:22.132Z,16.42
2022-08-22T01:11:05.786Z,16.41
2022-08-22T01:13:50.568Z,16.37
2022-08-22T01:16:24.476Z,16.35
2022-08-22T01:19:06.659Z,16.33
2022-08-22T01:21:57.642Z,16.28
2022-08-22T01:24:28.196Z,16.20
2022-08-22T01:27:11.922Z,16.16
2022-08-22T01:29:42.655Z,16.09
2022-08-22T01:32:27.129Z,16.06
2022-08-22T01:35:10.797Z,16.03
2022-08-22T01:37:54.582Z,15.98
2022-08-22T01:40:53.626Z,15.98
2022-08-22T01:43:59.045Z,15.95
2022-08-22T01:46:26.303Z,15.93
2022-08-22T01:49:10.563Z,15.91
2022-08-22T01:51:54.711Z,15.86
2022-08-22T01:54:38.452Z,15.85
2022-08-22T01:57:08.162Z,15.85
2022-08-22T01:59:42.338Z,15.85
2022-08-22T02:02:26.498Z,15.84
2022-08-22T02:05:10.059Z,15.85
2022-08-22T02:07:53.786Z,15.86
2022-08-22T02:10:36.405Z,15.87
2022-08-22T02:13:23.127Z,15.85
2022-08-22T02:15:56.056Z,15.84
2022-08-22T02:18:26.630Z,15.83
2022-08-22T02:21:05.454Z,15.79
2022-08-22T02:23:43.868Z,15.78
2022-08-22T02:26:16.899Z,15.78
2022-08-22T02:29:01.024Z,15.80
2022-08-22T02:31:28.692Z,15.79
2022-08-22T02:33:58.638Z,15.78
2022-08-22T02:36:29.387Z,15.76
2022-08-22T02:39:03.648Z,15.73
2022-08-22T02:41:37.272Z,15.71
2022-08-22T02:44:15.850Z,15.70
2022-08-22T02:46:47.242Z,15.69
2022-08-22T02:49:27.356Z,15.67
2022-08-22T02:52:02.254Z,15.66
2022-08-22T02:54:38.306Z,15.65
2022-08-22T02:57:14.400Z,15.63
2022-08-22T02:59:59.270Z,15.61
2022-08-22T03:02:32.213Z,15.60
2022-08-22T03:05:01.412Z,15.59
2022-08-22T03:07:41.144Z,15.59
2022-08-22T03:10:11.965Z,15.60
2022-08-22T03:12:42.368Z,15.62
2022-08-22T03:15:16.395Z,15.66
2022-08-22T03:17:50.229Z,15.72
2022-08-22T03:20:33.929Z,15.76
2022-08-22T03:23:21.906Z,15.77
2022-08-22T03:25:55.284Z,15.78
2022-08-22T03:28:39.012Z,15.78
2022-08-22T03:31:27.651Z,15.80
2022-08-22T03:34:11.407Z,15.81
2022-08-22T03:36:39.925Z,15.84
2022-08-22T03:39:30.678Z,15.86
2022-08-22T03:42:10.180Z,15.85
2022-08-22T03:44:37.882Z,15.84
2022-08-22T03:47:21.865Z,15.85
2022-08-22T03:49:59.716Z,15.83
2022-08-22T03:52:34.796Z,15.80
2022-08-22T03:55:09.306Z,15.79
2022-08-22T03:57:54.546Z,15.83
2022-08-22T04:00:39.492Z,15.85
2022-08-22T04:03:13.244Z,15.86
2022-08-22T04:05:58.842Z,15.89
2022-08-22T04:08:43.836Z,15.94
2022-08-22T04:11:21.545Z,15.99
2022-08-22T04:13:55.972Z,16.04
2022-08-22T04:16:26.309Z,16.03
2022-08-22T04:19:09.875Z,16.02
2022-08-22T04:21:53.613Z,16.03
2022-08-22T04:24:22.253Z,16.06
2022-08-22T04:26:57.665Z,16.05
2022-08-22T04:29:30.788Z,16.07
2022-08-22T04:32:06.635Z,16.12
2022-08-22T04:34:37.989Z,16.14
2022-08-22T04:37:18.554Z,16.13
2022-08-22T04:39:56.228Z,16.15
2022-08-22T04:42:40.396Z,16.17
2022-08-22T04:45:14.224Z,16.23
2022-08-22T04:47:53.905Z,16.30
2022-08-22T04:50:31.755Z,16.37
2022-08-22T04:53:16.394Z,16.41
2022-08-22T04:56:03.026Z,16.50
2022-08-22T04:58:50.462Z,16.60
2022-08-22T05:01:26.141Z,16.67
2022-08-22T05:04:03.018Z,16.72
2022-08-22T05:06:32.930Z,16.78
2022-08-22T05:09:04.160Z,16.80
2022-08-22T05:11:33.482Z,16.82
2022-08-22T05:14:04.079Z,16.88
2022-08-22T05:16:38.675Z,16.95
2022-08-22T05:19:12.003Z,16.98
2022-08-22T05:21:43.339Z,17.04
2022-08-22T05:24:13.972Z,17.08
2022-08-22T05:26:43.694Z,17.12
2022-08-22T05:29:13.986Z,17.18
2022-08-22T05:31:43.909Z,17.24
2022-08-22T05:34:16.698Z,17.28
2022-08-22T05:36:48.461Z,17.32
2022-08-22T05:39:18.913Z,17.37
2022-08-22T05:41:48.081Z,17.37
2022-08-22T05:44:18.035Z,17.38
2022-08-22T05:46:49.869Z,17.41
2022-08-22T05:49:19.636Z,17.45
2022-08-22T05:51:49.934Z,17.50
2022-08-22T05:54:20.119Z,17.53
2022-08-22T05:56:53.013Z,17.54
2022-08-22T05:59:26.007Z,17.56
2022-08-22T06:02:00.806Z,17.60
2022-08-22T06:04:34.631Z,17.67
2022-08-22T06:07:19.269Z,17.73
2022-08-22T06:09:46.896Z,17.81
2022-08-22T06:12:21.847Z,17.88
2022-08-22T06:14:53.660Z,17.94
2022-08-22T06:17:25.125Z,18.00
2022-08-22T06:19:53.888Z,18.06
2022-08-22T06:22:24.924Z,18.12
2022-08-22T06:24:54.402Z,18.19
2022-08-22T06:27:23.952Z,18.23
2022-08-22T06:29:56.245Z,18.28
2022-08-22T06:32:53.782Z,18.33
2022-08-22T06:35:50.443Z,18.38
2022-08-22T06:38:20.255Z,18.42
2022-08-22T06:40:49.760Z,18.48
2022-08-22T06:43:18.024Z,18.56
2022-08-22T06:45:46.922Z,18.60
2022-08-22T06:48:21.246Z,18.61
2022-08-22T06:50:52.686Z,18.61
2022-08-22T06:53:20.349Z,18.63
2022-08-22T06:55:51.011Z,18.63
2022-08-22T06:58:22.753Z,18.67
2022-08-22T07:01:02.119Z,18.71
2022-08-22T07:03:43.781Z,18.74
2022-08-22T07:06:15.739Z,18.81
2022-08-22T07:08:44.034Z,18.90
2022-08-22T07:11:11.761Z,18.99
2022-08-22T07:13:43.188Z,19.07
2022-08-22T07:16:10.929Z,19.15
2022-08-22T07:18:48.915Z,19.22
2022-08-22T07:21:24.996Z,19.30
2022-08-22T07:23:53.959Z,19.38
2022-08-22T07:26:38.137Z,19.46
2022-08-22T07:29:21.826Z,19.53
2022-08-22T07:31:57.498Z,19.60
2022-08-22T07:34:41.239Z,19.68
2022-08-22T07:37:25.178Z,19.76
2022-08-22T07:40:09.156Z,19.82
2022-08-22T07:42:44.281Z,19.88
2022-08-22T07:45:21.042Z,19.96
2022-08-22T07:48:04.670Z,20.01
2022-08-22T07:50:37.176Z,20.00
2022-08-22T07:53:18.724Z,20.04
2022-08-22T07:55:49.392Z,20.02
2022-08-22T07:58:18.580Z,19.95
2022-08-22T08:00:48.472Z,19.90
2022-08-22T08:03:16.464Z,19.89
2022-08-22T08:05:44.882Z,19.91
2022-08-22T08:08:20.855Z,19.91
2022-08-22T08:10:50.703Z,19.92
2022-08-22T08:13:22.419Z,19.97
2022-08-22T08:15:50.904Z,20.02
2022-08-22T08:18:21.937Z,20.06
2022-08-22T08:20:57.592Z,20.13
2022-08-22T08:23:27.953Z,20.21
2022-08-22T08:26:01.678Z,20.30
2022-08-22T08:28:36.976Z,20.30
2022-08-22T08:31:21.571Z,20.31
2022-08-22T08:33:51.386Z,20.32
2022-08-22T08:36:26.230Z,20.32
2022-08-22T08:38:57.413Z,20.36
2022-08-22T08:41:25.189Z,20.37
2022-08-22T08:43:52.888Z,20.39
2022-08-22T08:46:36.541Z,20.44
2022-08-22T08:49:06.656Z,20.55
2022-08-22T08:51:50.195Z,20.62
2022-08-22T08:54:21.164Z,20.75
2022-08-22T08:56:56.930Z,20.87
2022-08-22T08:59:27.487Z,20.99
2022-08-22T09:02:13.905Z,21.12
2022-08-22T09:05:05.573Z,21.27
2022-08-22T09:07:33.261Z,21.36
2022-08-22T09:10:21.348Z,21.41
2022-08-22T09:13:12.135Z,21.44
2022-08-22T09:15:42.160Z,21.42
2022-08-22T09:18:10.545Z,21.32
2022-08-22T09:20:46.446Z,21.20
2022-08-22T09:23:17.343Z,21.17
2022-08-22T09:25:45.266Z,21.19
2022-08-22T09:28:13.724Z,21.16
2022-08-22T09:30:58.105Z,21.14
2022-08-22T09:33:33.905Z,21.15
2022-08-22T09:36:05.618Z,21.12
2022-08-22T09:38:49.381Z,21.11
2022-08-22T09:41:27.136Z,21.10
2022-08-22T09:44:12.029Z,21.10
2022-08-22T09:46:39.959Z,21.06
2022-08-22T09:49:16.340Z,21.05
2022-08-22T09:51:51.926Z,21.08
2022-08-22T09:54:31.458Z,21.12
2022-08-22T09:57:00.797Z,21.21
2022-08-22T09:59:45.584Z,21.30
2022-08-22T10:02:15.508Z,21.38
2022-08-22T10:04:55.197Z,21.45
2022-08-22T10:07:25.968Z,21.57
2022-08-22T10:10:11.245Z,21.66
2022-08-22T10:12:55.646Z,21.65
2022-08-22T10:15:32.258Z,21.61
2022-08-22T10:18:02.931Z,21.57
2022-08-22T10:20:36.080Z,21.54
2022-08-22T10:23:21.126Z,21.54
2022-08-22T10:25:55.455Z,21.61
2022-08-22T10:28:43.284Z,21.69
2022-08-22T10:31:27.291Z,21.69
2022-08-22T10:33:55.005Z,21.70
2022-08-22T10:36:30.626Z,21.80
2022-08-22T10:38:59.885Z,21.92
2022-08-22T10:41:27.550Z,22.04
2022-08-22T10:44:11.071Z,22.14
2022-08-22T10:46:42.234Z,22.27
2022-08-22T10:49:28.970Z,22.47
2022-08-22T10:52:13.655Z,22.72
2022-08-22T10:54:51.176Z,22.85
2022-08-22T10:57:36.278Z,22.81
2022-08-22T11:00:08.328Z,22.73
2022-08-22T11:02:44.973Z,22.75
2022-08-22T11:05:28.869Z,22.91
2022-08-22T11:08:12.662Z,23.04
2022-08-22T11:10:52.217Z,23.20
2022-08-22T11:13:35.934Z,23.21
2022-08-22T11:16:19.585Z,23.23
2022-08-22T11:19:01.859Z,23.39
2022-08-22T11:21:41.035Z,23.55
2022-08-22T11:24:34.725Z,23.66
2022-08-22T11:27:12.955Z,23.75
2022-08-22T11:29:56.976Z,23.77
2022-08-22T11:32:34.168Z,23.79
2022-08-22T11:35:20.778Z,23.79
2022-08-22T11:37:58.655Z,23.75
2022-08-22T11:40:42.738Z,23.75
2022-08-22T11:43:26.970Z,23.80
2022-08-22T11:46:02.949Z,23.79
2022-08-22T11:48:38.876Z,23.74
2022-08-22T11:51:34.127Z,23.79
2022-08-22T11:54:31.011Z,23.81
2022-08-22T11:57:08.173Z,23.86
2022-08-22T11:59:55.668Z,24.03
2022-08-22T12:02:34.781Z,24.20
2022-08-22T12:05:10.726Z,24.46
2022-08-22T12:07:53.597Z,24.67
2022-08-22T12:10:25.537Z,24.90
2022-08-22T12:12:56.290Z,25.00
2022-08-22T12:15:28.934Z,25.15
2022-08-22T12:18:18.000Z,25.30
2022-08-22T12:20:49.065Z,25.35
2022-08-22T12:23:19.901Z,25.34
2022-08-22T12:26:03.626Z,25.46
2022-08-22T12:28:39.996Z,25.67
2022-08-22T12:31:24.134Z,25.91
2022-08-22T12:34:07.829Z,26.01
2022-08-22T12:36:53.667Z,26.11
2022-08-22T12:39:24.324Z,26.04
2022-08-22T12:42:08.097Z,25.83
2022-08-22T12:44:51.841Z,25.80
2022-08-22T12:47:35.623Z,25.72
2022-08-22T12:50:13.108Z,25.52
2022-08-22T12:52:57.178Z,25.32
2022-08-22T12:55:41.306Z,25.08
2022-08-22T12:58:15.545Z,24.86
2022-08-22T13:00:47.245Z,24.65
2022-08-22T13:03:21.426Z,24.52
2022-08-22T13:05:56.774Z,24.51
2022-08-22T13:08:35.769Z,24.82
2022-08-22T13:11:09.950Z,25.33
2022-08-22T13:14:00.816Z,25.55
2022-08-22T13:16:49.085Z,25.80
2022-08-22T13:19:22.158Z,26.15
2022-08-22T13:21:54.008Z,26.74
2022-08-22T13:24:38.603Z,26.96
2022-08-22T13:27:14.864Z,26.53
2022-08-22T13:29:48.418Z,26.14
2022-08-22T13:32:23.485Z,25.74
2022-08-22T13:34:56.140Z,25.35
2022-08-22T13:37:29.220Z,25.06
2022-08-22T13:40:00.893Z,24.94
2022-08-22T13:42:31.425Z,24.78
2022-08-22T13:45:05.591Z,24.71
2022-08-22T13:47:35.774Z,24.53
2022-08-22T13:50:11.112Z,24.25
2022-08-22T13:52:42.956Z,24.10
2022-08-22T13:55:18.663Z,23.98
2022-08-22T13:57:52.017Z,23.87
2022-08-22T14:00:28.784Z,23.81
2022-08-22T14:03:13.018Z,23.80
2022-08-22T14:06:35.313Z,23.81
2022-08-22T14:08:48.833Z,23.85
2022-08-22T14:11:32.683Z,23.88
2022-08-22T14:14:03.094Z,23.97
2022-08-22T14:16:46.720Z,24.00
2022-08-22T14:19:23.634Z,24.10
2022-08-22T14:22:01.000Z,24.14
2022-08-22T14:24:33.006Z,24.01
2022-08-22T14:27:08.320Z,23.90
2022-08-22T14:29:52.039Z,23.88
2022-08-22T14:32:26.765Z,23.88
2022-08-22T14:35:10.698Z,23.82
2022-08-22T14:37:53.387Z,23.73
2022-08-22T14:40:37.378Z,23.71
2022-08-22T14:43:07.811Z,23.57
2022-08-22T14:45:38.565Z,23.43
2022-08-22T14:48:30.049Z,23.36
2022-08-22T14:51:04.042Z,23.29
2022-08-22T14:53:34.404Z,23.17
2022-08-22T14:56:05.318Z,23.07
2022-08-22T14:58:36.123Z,22.96
2022-08-22T15:01:09.840Z,22.78
2022-08-22T15:03:39.980Z,22.65
2022-08-22T15:06:09.924Z,22.63
2022-08-22T15:08:42.341Z,22.73
2022-08-22T15:11:21.039Z,22.94
2022-08-22T15:13:51.158Z,23.95
2022-08-22T15:16:22.103Z,25.10
2022-08-22T15:18:51.852Z,26.05
2022-08-22T15:21:28.255Z,26.92
2022-08-22T15:24:01.397Z,27.46
2022-08-22T15:26:34.439Z,27.95
2022-08-22T15:29:05.394Z,28.43
2022-08-22T15:31:34.458Z,28.55
2022-08-22T15:34:19.545Z,28.81
2022-08-22T15:37:09.087Z,28.77
2022-08-22T15:39:58.609Z,28.94
2022-08-22T15:42:30.476Z,29.47
2022-08-22T15:44:59.776Z,29.78
2022-08-22T15:47:43.932Z,30.04
2022-08-22T15:50:15.302Z,30.17
2022-08-22T15:53:04.893Z,30.23
2022-08-22T15:55:35.367Z,30.26
2022-08-22T15:58:06.740Z,30.13
2022-08-22T16:00:43.893Z,29.76
2022-08-22T16:03:29.096Z,29.05
2022-08-22T16:05:59.751Z,28.27
2022-08-22T16:08:33.017Z,27.60
2022-08-22T16:11:01.136Z,27.05
2022-08-22T16:13:33.459Z,26.64
2022-08-22T16:16:07.081Z,26.44
2022-08-22T16:18:39.048Z,26.37
2022-08-22T16:21:11.012Z,26.08
2022-08-22T16:23:56.388Z,25.80
2022-08-22T16:26:24.075Z,25.41
2022-08-22T16:28:58.218Z,25.11
2022-08-22T16:31:34.885Z,24.81
2022-08-22T16:34:18.733Z,24.54
2022-08-22T16:37:01.459Z,24.33
2022-08-22T16:39:32.110Z,24.09
2022-08-22T16:42:15.794Z,23.88
2022-08-22T16:44:48.224Z,23.67
2022-08-22T16:47:21.216Z,23.50
2022-08-22T16:49:48.915Z,23.31
2022-08-22T16:52:33.412Z,23.13
2022-08-22T16:55:01.305Z,22.95
2022-08-22T16:58:05.098Z,22.80
2022-08-22T17:00:41.690Z,22.64
2022-08-22T17:03:12.422Z,22.50
2022-08-22T17:05:46.103Z,22.40
2022-08-22T17:08:29.725Z,22.28
2022-08-22T17:11:13.361Z,22.19
2022-08-22T17:13:44.089Z,22.12
2022-08-22T17:16:27.820Z,22.05
2022-08-22T17:19:11.388Z,21.95
2022-08-22T17:21:51.731Z,21.85
2022-08-22T17:24:31.839Z,21.71
2022-08-22T17:27:03.009Z,21.55
2022-08-22T17:29:36.556Z,21.43
2022-08-22T17:32:21.287Z,21.32
2022-08-22T17:35:04.863Z,21.20
2022-08-22T17:37:44.819Z,21.07
2022-08-22T17:40:28.624Z,20.93
2022-08-22T17:42:56.342Z,20.78
2022-08-22T17:45:34.264Z,20.66
2022-08-22T17:48:08.244Z,20.53
2022-08-22T17:50:39.076Z,20.43
2022-08-22T17:53:16.259Z,20.33
2022-08-22T17:56:00.285Z,20.21
2022-08-22T17:58:37.755Z,20.12
2022-08-22T18:01:20.155Z,20.02
2022-08-22T18:03:58.224Z,19.93
2022-08-22T18:06:35.465Z,19.85
2022-08-22T18:09:14.881Z,19.77
2022-08-22T18:11:42.923Z,19.71
2022-08-22T18:14:26.678Z,19.64
2022-08-22T18:16:55.269Z,19.58
2022-08-22T18:19:22.935Z,19.52
2022-08-22T18:22:06.650Z,19.48
2022-08-22T18:24:51.375Z,19.43
2022-08-22T18:27:35.774Z,19.40
2022-08-22T18:30:15.364Z,19.36
2022-08-22T18:32:54.899Z,19.35
2022-08-22T18:35:39.708Z,19.33
2022-08-22T18:38:19.240Z,19.32
2022-08-22T18:40:55.738Z,19.31
2022-08-22T18:43:40.346Z,19.31
2022-08-22T18:46:24.004Z,19.31
2022-08-22T18:49:14.252Z,19.31
2022-08-22T18:51:41.454Z,19.30
2022-08-22T18:54:10.973Z,19.27
2022-08-22T18:56:54.744Z,19.25
2022-08-22T18:59:25.463Z,19.23
2022-08-22T19:02:09.706Z,19.20
2022-08-22T19:04:43.204Z,19.17
2022-08-22T19:07:26.830Z,19.15
2022-08-22T19:10:11.098Z,19.15
2022-08-22T19:12:49.472Z,19.14
2022-08-22T19:15:33.340Z,19.13
2022-08-22T19:18:03.908Z,19.13
2022-08-22T19:20:48.441Z,19.13
2022-08-22T19:23:33.106Z,19.12
2022-08-22T19:26:16.814Z,19.12
2022-08-22T19:28:44.581Z,19.08
2022-08-22T19:31:18.619Z,19.08
2022-08-22T19:33:48.852Z,19.06
2022-08-22T19:36:32.555Z,19.07
2022-08-22T19:39:04.022Z,19.08
2022-08-22T19:41:47.675Z,19.11
2022-08-22T19:44:18.895Z,19.12
2022-08-22T19:47:02.348Z,19.11
2022-08-22T19:49:32.387Z,19.08
2022-08-22T19:52:16.088Z,19.08
2022-08-22T19:55:04.333Z,19.08
2022-08-22T19:57:42.446Z,19.05
2022-08-22T20:00:20.254Z,19.02
2022-08-22T20:03:03.952Z,19.00
2022-08-22T20:05:56.647Z,18.98
2022-08-22T20:08:45.832Z,18.98
2022-08-22T20:11:29.541Z,18.98
2022-08-22T20:14:13.297Z,18.97
2022-08-22T20:16:57.140Z,18.95
2022-08-22T20:19:42.897Z,18.93
2022-08-22T20:22:15.914Z,18.88
2022-08-22T20:24:58.517Z,18.86
2022-08-22T20:27:26.265Z,18.83
2022-08-22T20:30:05.974Z,18.83
2022-08-22T20:32:41.609Z,18.85
2022-08-22T20:35:12.227Z,18.86
2022-08-22T20:38:06.354Z,18.86
2022-08-22T20:40:55.306Z,18.84
2022-08-22T20:43:34.242Z,18.80
2022-08-22T20:46:01.899Z,18.78
2022-08-22T20:48:37.258Z,18.74
2022-08-22T20:51:06.809Z,18.72
2022-08-22T20:53:35.026Z,18.70
2022-08-22T20:56:05.309Z,18.68
2022-08-22T20:58:35.722Z,18.67
2022-08-22T21:01:06.837Z,18.67
2022-08-22T21:03:34.619Z,18.65
2022-08-22T21:06:29.243Z,18.62
2022-08-22T21:09:28.857Z,18.60
2022-08-22T21:11:59.909Z,18.59
2022-08-22T21:14:32.605Z,18.59
2022-08-22T21:17:16.741Z,18.58
2022-08-22T21:19:44.588Z,18.56
2022-08-22T21:22:17.260Z,18.54
2022-08-22T21:24:45.619Z,18.54
2022-08-22T21:27:21.486Z,18.52
2022-08-22T21:29:49.265Z,18.51
2022-08-22T21:32:23.175Z,18.50
2022-08-22T21:34:51.145Z,18.48
2022-08-22T21:37:29.299Z,18.45
2022-08-22T21:40:00.178Z,18.42
2022-08-22T21:42:30.843Z,18.38
2022-08-22T21:45:10.994Z,18.34
2022-08-22T21:47:40.274Z,18.32
2022-08-22T21:50:24.241Z,18.29
2022-08-22T21:52:55.073Z,18.26
2022-08-22T21:55:27.849Z,18.23
2022-08-22T21:58:03.352Z,18.22
2022-08-22T22:00:48.828Z,18.17
2022-08-22T22:03:19.310Z,18.11
2022-08-22T22:05:49.142Z,18.09
2022-08-22T22:08:17.394Z,18.05
2022-08-22T22:10:46.856Z,18.02
2022-08-22T22:13:14.982Z,17.98
2022-08-22T22:15:46.015Z,17.94
2022-08-22T22:18:15.011Z,17.92
2022-08-22T22:20:43.805Z,17.92
2022-08-22T22:23:11.781Z,17.94
2022-08-22T22:25:42.231Z,17.91
2022-08-22T22:28:12.947Z,17.89
2022-08-22T22:30:41.266Z,17.83
2022-08-22T22:33:09.500Z,17.78
2022-08-22T22:35:39.112Z,17.73
2022-08-22T22:38:07.582Z,17.69
2022-08-22T22:40:35.501Z,17.64
2022-08-22T22:43:03.575Z,17.61
2022-08-22T22:45:31.605Z,17.56
2022-08-22T22:47:59.564Z,17.54
2022-08-22T22:50:27.624Z,17.51
2022-08-22T22:52:55.416Z,17.49
2022-08-22T22:55:24.448Z,17.48
2022-08-22T22:57:59.130Z,17.47
2022-08-22T23:00:30.738Z,17.45
2022-08-22T23:03:03.900Z,17.44
2022-08-22T23:05:32.769Z,17.45
2022-08-22T23:08:01.144Z,17.44
2022-08-22T23:10:29.659Z,17.42
2022-08-22T23:12:57.938Z,17.42
2022-08-22T23:15:25.993Z,17.41
2022-08-22T23:17:54.045Z,17.40
2022-08-22T23:20:21.795Z,17.36
2022-08-22T23:22:49.946Z,17.31
2022-08-22T23:25:17.792Z,17.26
2022-08-22T23:27:52.099Z,17.23
2022-08-22T23:30:20.844Z,17.21
2022-08-22T23:32:48.600Z,17.19
2022-08-22T23:35:16.325Z,17.15
2022-08-22T23:37:44.025Z,17.11
2022-08-22T23:40:12.044Z,17.09
2022-08-22T23:42:39.842Z,17.07
2022-08-22T23:45:07.855Z,17.05
2022-08-22T23:47:35.562Z,17.06
2022-08-22T23:50:06.230Z,17.04
2022-08-22T23:52:34.232Z,17.02
2022-08-22T23:55:02.097Z,17.01
2022-08-22T23:57:29.763Z,17.00
2022-08-22T23:59:58.713Z,16.99
